createdAt,value
2022-09-13T00:01:27.339Z,1.92
2022-09-13T00:04:32.779Z,1.60
2022-09-13T00:07:39.439Z,2.25
2022-09-13T00:10:46.535Z,2.00
2022-09-13T00:13:52.445Z,1.85
2022-09-13T00:16:57.807Z,1.70
2022-09-13T00:20:03.759Z,2.05
2022-09-13T00:23:12.422Z,2.15
2022-09-13T00:26:21.539Z,1.90
2022-09-13T00:29:27.454Z,1.88
2022-09-13T00:32:32.793Z,2.00
2022-09-13T00:35:38.573Z,1.75
2022-09-13T00:38:45.544Z,1.98
2022-09-13T00:41:50.986Z,2.10
2022-09-13T00:44:59.320Z,2.00
2022-09-13T00:48:07.428Z,1.83
2022-09-13T00:51:13.730Z,1.90
2022-09-13T00:54:24.327Z,1.92
2022-09-13T00:57:31.193Z,1.85
2022-09-13T01:00:37.020Z,2.10
2022-09-13T01:03:44.826Z,1.80
2022-09-13T01:06:51.359Z,2.33
2022-09-13T01:09:58.452Z,1.80
2022-09-13T01:13:14.931Z,1.77
2022-09-13T01:16:20.447Z,2.10
2022-09-13T01:19:26.048Z,1.92
2022-09-13T01:23:23.530Z,1.85
2022-09-13T01:27:25.376Z,2.08
2022-09-13T01:30:35.691Z,2.38
2022-09-13T01:33:55.786Z,1.75
2022-09-13T01:37:40.114Z,1.52
2022-09-13T01:40:57.541Z,1.90
2022-09-13T01:44:12.680Z,2.13
2022-09-13T01:47:27.118Z,1.80
2022-09-13T01:50:40.770Z,2.00
2022-09-13T01:54:00.170Z,2.03
2022-09-13T01:57:12.178Z,1.80
2022-09-13T02:00:18.856Z,1.80
2022-09-13T02:03:29.794Z,1.95
2022-09-13T02:06:38.141Z,2.17
2022-09-13T02:09:46.297Z,2.00
2022-09-13T02:12:52.887Z,1.80
2022-09-13T02:16:03.638Z,1.90
2022-09-13T02:19:15.530Z,1.88
2022-09-13T02:22:29.081Z,1.98
2022-09-13T02:25:35.850Z,1.80
2022-09-13T02:28:47.183Z,1.77
2022-09-13T02:31:58.407Z,1.92
2022-09-13T02:35:10.527Z,1.98
2022-09-13T02:38:21.847Z,1.90
2022-09-13T02:41:35.663Z,2.00
2022-09-13T02:44:44.822Z,1.90
2022-09-13T02:47:57.965Z,1.67
2022-09-13T02:51:11.675Z,1.90
2022-09-13T02:54:25.827Z,2.00
2022-09-13T02:57:35.527Z,1.98
2022-09-13T03:00:41.126Z,1.88
2022-09-13T03:03:46.643Z,2.17
2022-09-13T03:06:53.513Z,2.00
2022-09-13T03:10:06.305Z,2.08
2022-09-13T03:13:47.161Z,1.77
2022-09-13T03:17:15.655Z,1.85
2022-09-13T03:20:30.362Z,2.08
2022-09-13T03:23:52.040Z,1.80
2022-09-13T03:27:11.027Z,1.70
2022-09-13T03:30:17.971Z,1.90
2022-09-13T03:33:32.473Z,1.75
2022-09-13T03:36:43.357Z,2.08
2022-09-13T03:39:54.859Z,2.10
2022-09-13T03:43:04.361Z,1.90
2022-09-13T03:46:13.456Z,2.00
2022-09-13T03:49:20.689Z,2.10
2022-09-13T03:52:26.566Z,1.70
2022-09-13T03:55:34.532Z,2.30
2022-09-13T03:58:39.946Z,2.10
2022-09-13T04:01:45.416Z,2.13
2022-09-13T04:04:51.461Z,2.28
2022-09-13T04:07:57.024Z,2.35
2022-09-13T04:11:03.663Z,2.22
2022-09-13T04:14:09.082Z,2.42
2022-09-13T04:17:15.745Z,2.20
2022-09-13T04:20:21.283Z,2.08
2022-09-13T04:23:28.542Z,2.38
2022-09-13T04:26:35.991Z,2.25
2022-09-13T04:29:41.847Z,2.20
2022-09-13T04:32:47.033Z,2.17
2022-09-13T04:35:59.121Z,2.40
2022-09-13T04:39:04.702Z,2.60
2022-09-13T04:42:12.678Z,2.40
2022-09-13T04:45:18.178Z,2.20
2022-09-13T04:48:23.421Z,2.20
2022-09-13T04:51:28.859Z,2.30
2022-09-13T04:54:34.457Z,2.30
2022-09-13T04:57:41.155Z,1.95
2022-09-13T05:00:46.430Z,2.28
2022-09-13T05:03:53.526Z,2.40
2022-09-13T05:06:59.239Z,2.10
2022-09-13T05:10:04.770Z,2.33
2022-09-13T05:13:13.773Z,1.67
2022-09-13T05:16:19.108Z,2.33
2022-09-13T05:19:24.831Z,1.98
2022-09-13T05:22:30.665Z,2.30
2022-09-13T05:25:36.066Z,2.60
2022-09-13T05:28:42.701Z,2.35
2022-09-13T05:31:48.547Z,1.83
2022-09-13T05:34:54.280Z,1.98
2022-09-13T05:37:59.609Z,2.30
2022-09-13T05:41:06.845Z,2.20
2022-09-13T05:44:15.836Z,2.28
2022-09-13T05:47:21.176Z,1.90
2022-09-13T05:50:54.169Z,1.98
2022-09-13T05:53:54.760Z,2.30
2022-09-13T05:57:00.229Z,2.30
2022-09-13T06:00:08.526Z,2.20
2022-09-13T06:03:18.611Z,2.25
2022-09-13T06:06:24.920Z,2.45
2022-09-13T06:09:31.071Z,2.13
2022-09-13T06:12:36.634Z,2.20
2022-09-13T06:15:43.546Z,2.38
2022-09-13T06:18:48.968Z,2.65
2022-09-13T06:21:54.528Z,2.28
2022-09-13T06:24:59.971Z,2.47
2022-09-13T06:28:05.780Z,2.28
2022-09-13T06:31:15.752Z,2.15
2022-09-13T06:34:21.419Z,2.38
2022-09-13T06:37:26.596Z,2.38
2022-09-13T06:40:32.698Z,2.20
2022-09-13T06:43:38.451Z,2.30
2022-09-13T06:46:45.385Z,2.30
2022-09-13T06:49:50.814Z,2.42
2022-09-13T06:52:58.156Z,2.70
2022-09-13T06:56:05.954Z,2.25
2022-09-13T06:59:12.283Z,2.20
2022-09-13T07:02:19.106Z,2.50
2022-09-13T07:05:24.396Z,2.22
2022-09-13T07:08:29.713Z,3.20
2022-09-13T07:11:37.713Z,2.67
2022-09-13T07:14:42.987Z,3.08
2022-09-13T07:17:50.033Z,2.95
2022-09-13T07:21:02.390Z,2.85
2022-09-13T07:24:08.353Z,3.33
2022-09-13T07:27:14.931Z,3.08
2022-09-13T07:30:20.347Z,2.90
2022-09-13T07:33:27.525Z,2.60
2022-09-13T07:36:37.364Z,2.35
2022-09-13T07:39:42.741Z,3.00
2022-09-13T07:42:48.209Z,2.38
2022-09-13T07:46:00.846Z,2.30
2022-09-13T07:49:08.511Z,2.70
2022-09-13T07:52:13.760Z,2.63
2022-09-13T07:55:19.098Z,2.67
2022-09-13T07:58:24.377Z,2.83
2022-09-13T08:01:32.054Z,2.60
2022-09-13T08:04:38.959Z,2.40
2022-09-13T08:07:44.158Z,2.30
2022-09-13T08:10:49.687Z,2.40
2022-09-13T08:13:56.049Z,2.40
2022-09-13T08:17:02.068Z,2.90
2022-09-13T08:20:10.569Z,2.30
2022-09-13T08:23:16.858Z,2.00
2022-09-13T08:26:22.758Z,2.17
2022-09-13T08:29:28.002Z,2.00
2022-09-13T08:32:33.633Z,2.13
2022-09-13T08:35:40.485Z,2.38
2022-09-13T08:38:48.545Z,2.42
2022-09-13T08:42:13.117Z,2.92
2022-09-13T08:45:18.679Z,2.58
2022-09-13T08:48:28.111Z,2.38
2022-09-13T08:51:39.313Z,2.38
2022-09-13T08:54:44.801Z,2.20
2022-09-13T08:57:57.107Z,1.80
2022-09-13T09:01:07.756Z,2.00
2022-09-13T09:04:28.830Z,1.92
2022-09-13T09:07:43.709Z,1.80
2022-09-13T09:10:53.194Z,1.80
2022-09-13T09:14:06.733Z,2.03
2022-09-13T09:17:17.635Z,1.80
2022-09-13T09:20:32.322Z,1.73
2022-09-13T09:23:42.562Z,1.63
2022-09-13T09:26:48.006Z,1.52
2022-09-13T09:29:58.204Z,2.00
2022-09-13T09:33:34.155Z,1.90
2022-09-13T09:36:43.453Z,1.88
2022-09-13T09:39:51.179Z,1.85
2022-09-13T09:42:57.053Z,1.80
2022-09-13T09:46:04.421Z,2.33
2022-09-13T09:49:35.998Z,2.00
2022-09-13T09:52:50.785Z,2.30
2022-09-13T09:56:02.885Z,2.10
2022-09-13T09:59:28.401Z,2.13
2022-09-13T10:02:34.425Z,2.40
2022-09-13T10:05:40.033Z,2.42
2022-09-13T10:08:55.057Z,2.30
2022-09-13T10:12:01.802Z,2.22
2022-09-13T10:15:18.019Z,1.98
2022-09-13T10:18:43.443Z,2.08
2022-09-13T10:22:03.059Z,1.80
2022-09-13T10:25:24.796Z,2.20
2022-09-13T10:28:32.937Z,1.92
2022-09-13T10:31:40.130Z,2.10
2022-09-13T10:34:47.905Z,2.05
2022-09-13T10:37:54.510Z,2.17
2022-09-13T10:41:02.641Z,1.73
2022-09-13T10:44:28.021Z,2.35
2022-09-13T10:47:36.369Z,2.63
2022-09-13T10:50:41.807Z,2.58
2022-09-13T10:53:47.496Z,2.53
2022-09-13T10:56:52.973Z,2.22
2022-09-13T11:00:00.451Z,2.28
2022-09-13T11:03:25.951Z,2.15
2022-09-13T11:06:37.158Z,2.65
2022-09-13T11:09:49.127Z,1.95
2022-09-13T11:13:02.839Z,2.03
2022-09-13T11:16:28.927Z,2.05
2022-09-13T11:20:11.378Z,1.92
2022-09-13T11:23:50.564Z,2.17
2022-09-13T11:27:03.478Z,2.10
2022-09-13T11:30:17.489Z,2.25
2022-09-13T11:33:41.762Z,2.20
2022-09-13T11:37:03.915Z,2.05
2022-09-13T11:40:33.339Z,2.03
2022-09-13T11:43:56.310Z,2.03
2022-09-13T11:47:09.834Z,2.58
2022-09-13T11:50:28.637Z,2.40
2022-09-13T11:53:59.883Z,2.05
2022-09-13T11:57:10.066Z,2.00
2022-09-13T12:00:23.766Z,2.10
2022-09-13T12:03:34.899Z,1.92
2022-09-13T12:06:43.555Z,2.25
2022-09-13T12:09:58.831Z,2.20
2022-09-13T12:13:05.306Z,2.15
2022-09-13T12:16:16.376Z,2.20
2022-09-13T12:19:25.218Z,2.47
2022-09-13T12:22:35.531Z,2.40
2022-09-13T12:25:47.886Z,2.42
2022-09-13T12:28:56.829Z,2.90
2022-09-13T12:32:06.494Z,2.75
2022-09-13T12:35:21.223Z,2.80
2022-09-13T12:38:59.146Z,2.58
2022-09-13T12:42:45.493Z,2.67
2022-09-13T12:46:10.685Z,2.97
2022-09-13T12:49:29.475Z,2.90
2022-09-13T12:52:42.367Z,2.78
2022-09-13T12:56:03.900Z,2.90
2022-09-13T12:59:57.396Z,2.60
2022-09-13T13:03:11.713Z,2.30
2022-09-13T13:06:29.661Z,2.65
2022-09-13T13:09:42.430Z,2.55
2022-09-13T13:12:49.166Z,2.70
2022-09-13T13:16:25.330Z,2.55
2022-09-13T13:19:33.730Z,2.55
2022-09-13T13:22:52.797Z,2.60
2022-09-13T13:26:46.106Z,2.58
2022-09-13T13:30:43.136Z,2.60
2022-09-13T13:33:50.369Z,2.50
2022-09-13T13:37:03.534Z,2.65
2022-09-13T13:40:29.254Z,3.13
2022-09-13T13:43:35.868Z,3.90
2022-09-13T13:46:43.078Z,2.92
2022-09-13T13:49:53.605Z,3.10
2022-09-13T13:53:06.232Z,2.70
2022-09-13T13:56:32.495Z,2.28
2022-09-13T13:59:38.358Z,2.20
2022-09-13T14:02:53.379Z,1.90
2022-09-13T14:06:10.298Z,2.22
2022-09-13T14:09:33.395Z,2.10
2022-09-13T14:13:05.713Z,2.30
2022-09-13T14:16:29.346Z,2.38
2022-09-13T14:19:43.985Z,2.40
2022-09-13T14:22:49.853Z,2.90
2022-09-13T14:26:00.803Z,2.60
2022-09-13T14:29:10.026Z,2.60
2022-09-13T14:32:22.175Z,2.65
2022-09-13T14:35:32.550Z,2.80
2022-09-13T14:38:38.450Z,2.85
2022-09-13T14:41:43.641Z,1.98
2022-09-13T14:44:49.552Z,2.03
2022-09-13T14:47:58.270Z,2.30
2022-09-13T14:51:13.592Z,1.83
2022-09-13T14:54:22.899Z,2.25
2022-09-13T14:57:33.918Z,2.38
2022-09-13T15:00:53.499Z,2.40
2022-09-13T15:04:01.164Z,2.63
2022-09-13T15:07:22.288Z,2.60
2022-09-13T15:10:31.185Z,2.08
2022-09-13T15:13:37.912Z,1.73
2022-09-13T15:16:50.141Z,1.38
2022-09-13T15:20:13.923Z,2.05
2022-09-13T15:23:24.931Z,1.90
2022-09-13T15:26:30.207Z,1.73
2022-09-13T15:29:37.629Z,1.77
2022-09-13T15:32:45.166Z,1.65
2022-09-13T15:35:50.786Z,1.50
2022-09-13T15:39:17.931Z,2.10
2022-09-13T15:42:23.246Z,1.88
2022-09-13T15:45:28.506Z,2.30
2022-09-13T15:48:36.357Z,1.70
2022-09-13T15:51:44.578Z,1.70
2022-09-13T15:54:52.381Z,1.95
2022-09-13T15:57:57.724Z,1.45
2022-09-13T16:01:03.941Z,1.77
2022-09-13T16:04:09.530Z,1.60
2022-09-13T16:07:14.965Z,1.40
2022-09-13T16:10:23.729Z,1.40
2022-09-13T16:13:29.065Z,1.67
2022-09-13T16:16:34.662Z,1.90
2022-09-13T16:19:45.447Z,1.92
2022-09-13T16:22:50.933Z,1.90
2022-09-13T16:25:59.371Z,2.00
2022-09-13T16:29:05.061Z,1.80
2022-09-13T16:32:12.795Z,1.73
2022-09-13T16:35:18.842Z,2.00
2022-09-13T16:38:24.270Z,2.25
2022-09-13T16:41:31.136Z,1.60
2022-09-13T16:44:36.770Z,1.90
2022-09-13T16:47:42.374Z,1.52
2022-09-13T16:50:47.629Z,2.10
2022-09-13T16:53:54.373Z,2.38
2022-09-13T16:57:01.349Z,2.33
2022-09-13T17:00:11.522Z,2.20
2022-09-13T17:03:16.894Z,2.47
2022-09-13T17:06:24.079Z,2.17
2022-09-13T17:09:30.853Z,2.20
2022-09-13T17:12:37.244Z,2.28
2022-09-13T17:15:42.494Z,2.20
2022-09-13T17:18:47.860Z,2.00
2022-09-13T17:21:57.424Z,1.90
2022-09-13T17:25:02.658Z,2.00
2022-09-13T17:28:09.339Z,1.85
2022-09-13T17:31:14.927Z,2.22
2022-09-13T17:34:20.418Z,2.53
2022-09-13T17:37:25.833Z,2.13
2022-09-13T17:40:32.119Z,2.33
2022-09-13T17:43:39.462Z,2.20
2022-09-13T17:46:45.104Z,2.13
2022-09-13T17:49:50.133Z,2.20
2022-09-13T17:52:55.490Z,2.15
2022-09-13T17:56:00.570Z,2.00
2022-09-13T17:59:10.391Z,1.80
2022-09-13T18:02:15.638Z,1.65
2022-09-13T18:05:21.138Z,1.77
2022-09-13T18:08:26.902Z,1.60
2022-09-13T18:11:32.116Z,2.08
2022-09-13T18:14:38.602Z,1.90
2022-09-13T18:17:43.826Z,1.70
2022-09-13T18:20:49.038Z,1.88
2022-09-13T18:23:58.268Z,1.70
2022-09-13T18:27:03.644Z,2.00
2022-09-13T18:30:11.739Z,1.90
2022-09-13T18:33:20.984Z,2.20
2022-09-13T18:36:27.157Z,1.92
2022-09-13T18:39:32.140Z,1.88
2022-09-13T18:42:40.989Z,2.10
2022-09-13T18:45:56.222Z,2.28
2022-09-13T18:49:03.149Z,2.33
2022-09-13T18:52:08.293Z,1.77
2022-09-13T18:55:13.818Z,2.00
2022-09-13T18:58:19.170Z,2.10
2022-09-13T19:01:28.068Z,2.13
2022-09-13T19:04:36.157Z,2.55
2022-09-13T19:07:42.216Z,2.75
2022-09-13T19:10:47.479Z,2.40
2022-09-13T19:13:53.091Z,2.80
2022-09-13T19:17:02.983Z,4.15
2022-09-13T19:20:09.814Z,3.90
2022-09-13T19:23:16.512Z,3.20
2022-09-13T19:26:24.539Z,2.05
2022-09-13T19:29:29.552Z,2.03
2022-09-13T19:32:36.658Z,2.03
2022-09-13T19:35:41.949Z,2.10
2022-09-13T19:38:47.384Z,1.70
2022-09-13T19:41:53.578Z,2.22
2022-09-13T19:44:58.856Z,1.65
2022-09-13T19:48:37.741Z,2.00
2022-09-13T19:51:33.887Z,1.70
2022-09-13T19:54:38.870Z,2.05
2022-09-13T19:57:45.118Z,2.00
2022-09-13T20:00:50.398Z,1.80
2022-09-13T20:03:58.869Z,1.90
2022-09-13T20:07:03.838Z,2.45
2022-09-13T20:10:10.102Z,2.85
2022-09-13T20:13:15.667Z,2.15
2022-09-13T20:16:22.931Z,2.28
2022-09-13T20:19:41.586Z,3.40
2022-09-13T20:22:47.969Z,3.70
2022-09-13T20:25:52.910Z,3.35
2022-09-13T20:29:05.121Z,3.05
2022-09-13T20:32:11.324Z,2.60
2022-09-13T20:35:18.283Z,1.77
2022-09-13T20:38:23.784Z,1.70
2022-09-13T20:41:30.209Z,2.00
2022-09-13T20:44:35.138Z,2.88
2022-09-13T20:47:40.381Z,4.57
2022-09-13T20:50:54.962Z,4.40
2022-09-13T20:54:01.126Z,3.58
2022-09-13T20:57:06.720Z,3.00
2022-09-13T21:00:14.040Z,3.10
2022-09-13T21:03:19.587Z,2.90
2022-09-13T21:06:28.791Z,2.20
2022-09-13T21:09:32.777Z,2.20
2022-09-13T21:12:38.579Z,2.08
2022-09-13T21:15:43.837Z,1.80
2022-09-13T21:18:49.870Z,1.90
2022-09-13T21:21:56.224Z,2.00
2022-09-13T21:25:01.439Z,1.63
2022-09-13T21:28:06.604Z,1.67
2022-09-13T21:31:19.558Z,1.98
2022-09-13T21:34:27.372Z,1.70
2022-09-13T21:37:34.055Z,1.55
2022-09-13T21:40:39.314Z,1.52
2022-09-13T21:43:45.211Z,1.30
2022-09-13T21:46:51.464Z,1.30
2022-09-13T21:49:56.739Z,1.67
2022-09-13T21:53:03.398Z,1.20
2022-09-13T21:56:12.018Z,1.15
2022-09-13T21:59:18.519Z,1.17
2022-09-13T22:02:23.861Z,1.27
2022-09-13T22:05:29.595Z,1.27
2022-09-13T22:08:39.345Z,1.05
2022-09-13T22:11:46.606Z,1.33
2022-09-13T22:14:51.878Z,1.30
2022-09-13T22:17:57.165Z,1.20
2022-09-13T22:21:15.398Z,0.90
2022-09-13T22:24:24.123Z,1.00
2022-09-13T22:27:29.558Z,1.10
2022-09-13T22:30:36.429Z,1.05
2022-09-13T22:33:42.050Z,0.90
2022-09-13T22:36:47.423Z,0.98
2022-09-13T22:39:54.329Z,1.20
2022-09-13T22:42:59.541Z,1.00
2022-09-13T22:46:07.502Z,0.93
2022-09-13T22:49:14.726Z,0.90
2022-09-13T22:52:20.523Z,0.98
2022-09-13T22:55:27.166Z,0.73
2022-09-13T22:58:32.750Z,1.08
2022-09-13T23:01:38.354Z,1.10
2022-09-13T23:04:43.682Z,1.02
2022-09-13T23:07:48.982Z,0.70
2022-09-13T23:10:56.075Z,0.90
2022-09-13T23:14:03.183Z,1.00
2022-09-13T23:17:08.709Z,0.73
2022-09-13T23:20:14.815Z,0.80
2022-09-13T23:23:20.674Z,1.30
2022-09-13T23:26:27.664Z,0.90
2022-09-13T23:29:32.963Z,1.20
2022-09-13T23:32:38.254Z,0.90
2022-09-13T23:35:45.051Z,1.10
2022-09-13T23:38:52.745Z,1.10
2022-09-13T23:41:59.439Z,1.10
2022-09-13T23:45:05.260Z,1.10
2022-09-13T23:48:15.747Z,1.30
2022-09-13T23:51:24.263Z,1.00
2022-09-13T23:54:29.570Z,1.13
2022-09-13T23:57:36.191Z,1.00
